sensor_id;sensor_type;location;lat;lon;timestamp;P1;durP1;ratioP1;P2;durP2;ratioP2
19599;SDS011;9947;57.722;12.012;2023-02-11T00:01:58;44.30;;;7.33;;
19599;SDS011;9947;57.722;12.012;2023-02-11T00:04:32;42.47;;;6.20;;
19599;SDS011;9947;57.722;12.012;2023-02-11T00:06:59;40.90;;;6.30;;
19599;SDS011;9947;57.722;12.012;2023-02-11T00:09:33;40.73;;;6.63;;
19599;SDS011;9947;57.722;12.012;2023-02-11T00:12:00;50.40;;;7.50;;
19599;SDS011;9947;57.722;12.012;2023-02-11T00:14:41;45.10;;;6.27;;
19599;SDS011;9947;57.722;12.012;2023-02-11T00:17:07;49.73;;;6.73;;
19599;SDS011;9947;57.722;12.012;2023-02-11T00:19:41;36.40;;;7.23;;
19599;SDS011;9947;57.722;12.012;2023-02-11T00:22:08;43.80;;;6.53;;
19599;SDS011;9947;57.722;12.012;2023-02-11T00:24:43;38.23;;;6.83;;
19599;SDS011;9947;57.722;12.012;2023-02-11T00:27:17;43.17;;;7.13;;
19599;SDS011;9947;57.722;12.012;2023-02-11T00:29:50;35.97;;;6.43;;
19599;SDS011;9947;57.722;12.012;2023-02-11T00:32:19;41.53;;;6.83;;
19599;SDS011;9947;57.722;12.012;2023-02-11T00:34:52;40.57;;;6.10;;
19599;SDS011;9947;57.722;12.012;2023-02-11T00:37:19;49.33;;;8.07;;
19599;SDS011;9947;57.722;12.012;2023-02-11T00:39:54;43.43;;;6.43;;
19599;SDS011;9947;57.722;12.012;2023-02-11T00:42:21;32.27;;;6.00;;
19599;SDS011;9947;57.722;12.012;2023-02-11T00:44:55;38.27;;;5.80;;
19599;SDS011;9947;57.722;12.012;2023-02-11T00:47:22;35.70;;;5.63;;
19599;SDS011;9947;57.722;12.012;2023-02-11T00:49:55;37.20;;;6.23;;
19599;SDS011;9947;57.722;12.012;2023-02-11T00:52:29;43.50;;;7.07;;
19599;SDS011;9947;57.722;12.012;2023-02-11T00:55:04;41.17;;;5.93;;
19599;SDS011;9947;57.722;12.012;2023-02-11T00:57:38;42.57;;;6.23;;
19599;SDS011;9947;57.722;12.012;2023-02-11T01:00:12;45.80;;;6.53;;
19599;SDS011;9947;57.722;12.012;2023-02-11T01:02:39;36.13;;;5.93;;
19599;SDS011;9947;57.722;12.012;2023-02-11T01:05:13;28.77;;;5.47;;
19599;SDS011;9947;57.722;12.012;2023-02-11T01:07:40;40.97;;;6.77;;
19599;SDS011;9947;57.722;12.012;2023-02-11T01:10:14;41.20;;;6.23;;
19599;SDS011;9947;57.722;12.012;2023-02-11T01:12:48;40.93;;;6.20;;
19599;SDS011;9947;57.722;12.012;2023-02-11T01:15:22;34.20;;;5.60;;
19599;SDS011;9947;57.722;12.012;2023-02-11T01:17:56;46.33;;;6.40;;
19599;SDS011;9947;57.722;12.012;2023-02-11T01:20:30;38.27;;;6.50;;
19599;SDS011;9947;57.722;12.012;2023-02-11T01:22:57;39.37;;;6.07;;
19599;SDS011;9947;57.722;12.012;2023-02-11T01:25:34;45.37;;;7.03;;
19599;SDS011;9947;57.722;12.012;2023-02-11T01:28:01;34.30;;;6.43;;
19599;SDS011;9947;57.722;12.012;2023-02-11T01:30:35;39.07;;;6.00;;
19599;SDS011;9947;57.722;12.012;2023-02-11T01:33:02;40.80;;;6.90;;
19599;SDS011;9947;57.722;12.012;2023-02-11T01:35:36;42.90;;;6.43;;
19599;SDS011;9947;57.722;12.012;2023-02-11T01:38:03;43.80;;;9.10;;
19599;SDS011;9947;57.722;12.012;2023-02-11T01:40:39;38.53;;;5.97;;
19599;SDS011;9947;57.722;12.012;2023-02-11T01:43:05;41.70;;;7.47;;
19599;SDS011;9947;57.722;12.012;2023-02-11T01:45:59;49.43;;;7.37;;
19599;SDS011;9947;57.722;12.012;2023-02-11T01:48:37;48.57;;;10.23;;
19599;SDS011;9947;57.722;12.012;2023-02-11T01:51:14;49.50;;;7.53;;
19599;SDS011;9947;57.722;12.012;2023-02-11T01:53:46;44.27;;;7.07;;
19599;SDS011;9947;57.722;12.012;2023-02-11T01:56:40;38.30;;;6.43;;
19599;SDS011;9947;57.722;12.012;2023-02-11T01:59:38;39.83;;;6.60;;
19599;SDS011;9947;57.722;12.012;2023-02-11T02:02:11;49.73;;;7.83;;
19599;SDS011;9947;57.722;12.012;2023-02-11T02:04:49;28.53;;;6.40;;
19599;SDS011;9947;57.722;12.012;2023-02-11T02:07:25;38.67;;;6.63;;
19599;SDS011;9947;57.722;12.012;2023-02-11T02:10:06;50.57;;;6.83;;
19599;SDS011;9947;57.722;12.012;2023-02-11T02:12:46;38.73;;;6.27;;
19599;SDS011;9947;57.722;12.012;2023-02-11T02:15:21;40.17;;;6.70;;
19599;SDS011;9947;57.722;12.012;2023-02-11T02:18:08;47.77;;;6.40;;
19599;SDS011;9947;57.722;12.012;2023-02-11T02:21:10;36.97;;;6.40;;
19599;SDS011;9947;57.722;12.012;2023-02-11T02:23:58;51.43;;;7.27;;
19599;SDS011;9947;57.722;12.012;2023-02-11T02:26:45;49.87;;;8.30;;
19599;SDS011;9947;57.722;12.012;2023-02-11T02:32:56;44.57;;;6.57;;
19599;SDS011;9947;57.722;12.012;2023-02-11T02:35:40;38.30;;;7.47;;
19599;SDS011;9947;57.722;12.012;2023-02-11T02:38:20;58.57;;;8.10;;
19599;SDS011;9947;57.722;12.012;2023-02-11T02:40:53;56.83;;;9.33;;
19599;SDS011;9947;57.722;12.012;2023-02-11T02:43:30;56.57;;;8.87;;
19599;SDS011;9947;57.722;12.012;2023-02-11T02:46:09;53.77;;;8.17;;
19599;SDS011;9947;57.722;12.012;2023-02-11T02:48:46;51.93;;;7.70;;
19599;SDS011;9947;57.722;12.012;2023-02-11T02:51:20;54.57;;;7.57;;
19599;SDS011;9947;57.722;12.012;2023-02-11T02:54:12;51.73;;;7.87;;
19599;SDS011;9947;57.722;12.012;2023-02-11T02:57:03;46.27;;;7.33;;
19599;SDS011;9947;57.722;12.012;2023-02-11T02:59:44;52.47;;;7.57;;
19599;SDS011;9947;57.722;12.012;2023-02-11T03:02:24;48.50;;;7.97;;
19599;SDS011;9947;57.722;12.012;2023-02-11T03:05:03;43.37;;;6.90;;
19599;SDS011;9947;57.722;12.012;2023-02-11T03:07:44;41.67;;;7.00;;
19599;SDS011;9947;57.722;12.012;2023-02-11T03:10:25;47.77;;;7.47;;
19599;SDS011;9947;57.722;12.012;2023-02-11T03:13:03;46.67;;;7.93;;
19599;SDS011;9947;57.722;12.012;2023-02-11T03:15:42;46.80;;;7.57;;
19599;SDS011;9947;57.722;12.012;2023-02-11T03:18:18;56.23;;;7.47;;
19599;SDS011;9947;57.722;12.012;2023-02-11T03:20:49;58.63;;;7.43;;
19599;SDS011;9947;57.722;12.012;2023-02-11T03:23:27;53.80;;;8.27;;
19599;SDS011;9947;57.722;12.012;2023-02-11T03:25:57;42.13;;;7.57;;
19599;SDS011;9947;57.722;12.012;2023-02-11T03:28:41;48.03;;;8.30;;
19599;SDS011;9947;57.722;12.012;2023-02-11T03:31:14;46.10;;;6.30;;
19599;SDS011;9947;57.722;12.012;2023-02-11T03:33:54;48.73;;;7.37;;
19599;SDS011;9947;57.722;12.012;2023-02-11T03:36:30;59.40;;;7.33;;
19599;SDS011;9947;57.722;12.012;2023-02-11T03:39:16;55.90;;;8.23;;
19599;SDS011;9947;57.722;12.012;2023-02-11T03:41:47;41.80;;;6.93;;
19599;SDS011;9947;57.722;12.012;2023-02-11T03:44:24;56.50;;;8.33;;
19599;SDS011;9947;57.722;12.012;2023-02-11T03:46:56;43.23;;;7.03;;
19599;SDS011;9947;57.722;12.012;2023-02-11T03:49:30;50.97;;;6.50;;
19599;SDS011;9947;57.722;12.012;2023-02-11T03:52:02;48.77;;;8.20;;
19599;SDS011;9947;57.722;12.012;2023-02-11T03:54:39;43.30;;;6.37;;
19599;SDS011;9947;57.722;12.012;2023-02-11T03:57:08;55.23;;;7.90;;
19599;SDS011;9947;57.722;12.012;2023-02-11T03:59:49;39.90;;;6.23;;
19599;SDS011;9947;57.722;12.012;2023-02-11T04:02:17;39.70;;;6.37;;
19599;SDS011;9947;57.722;12.012;2023-02-11T04:04:51;46.03;;;6.87;;
19599;SDS011;9947;57.722;12.012;2023-02-11T04:07:19;29.10;;;6.23;;
19599;SDS011;9947;57.722;12.012;2023-02-11T04:09:53;29.07;;;5.33;;
19599;SDS011;9947;57.722;12.012;2023-02-11T04:12:20;35.23;;;5.93;;
19599;SDS011;9947;57.722;12.012;2023-02-11T04:14:54;41.37;;;6.33;;
19599;SDS011;9947;57.722;12.012;2023-02-11T04:17:21;40.77;;;6.37;;
19599;SDS011;9947;57.722;12.012;2023-02-11T04:19:54;40.27;;;6.57;;
19599;SDS011;9947;57.722;12.012;2023-02-11T04:22:22;40.93;;;6.37;;
19599;SDS011;9947;57.722;12.012;2023-02-11T04:25:03;38.53;;;5.77;;
19599;SDS011;9947;57.722;12.012;2023-02-11T04:27:31;47.10;;;6.70;;
19599;SDS011;9947;57.722;12.012;2023-02-11T04:30:04;33.97;;;5.70;;
19599;SDS011;9947;57.722;12.012;2023-02-11T04:32:32;37.90;;;6.13;;
19599;SDS011;9947;57.722;12.012;2023-02-11T04:35:06;34.43;;;6.43;;
19599;SDS011;9947;57.722;12.012;2023-02-11T04:37:34;25.77;;;5.77;;
19599;SDS011;9947;57.722;12.012;2023-02-11T04:40:08;34.60;;;5.77;;
19599;SDS011;9947;57.722;12.012;2023-02-11T04:42:36;39.70;;;5.43;;
19599;SDS011;9947;57.722;12.012;2023-02-11T04:45:09;34.13;;;6.33;;
19599;SDS011;9947;57.722;12.012;2023-02-11T04:47:36;39.80;;;6.20;;
19599;SDS011;9947;57.722;12.012;2023-02-11T04:50:09;29.57;;;5.93;;
19599;SDS011;9947;57.722;12.012;2023-02-11T04:52:38;28.90;;;5.73;;
19599;SDS011;9947;57.722;12.012;2023-02-11T04:55:12;40.47;;;5.83;;
19599;SDS011;9947;57.722;12.012;2023-02-11T04:57:39;36.93;;;5.93;;
19599;SDS011;9947;57.722;12.012;2023-02-11T05:00:12;33.17;;;5.50;;
19599;SDS011;9947;57.722;12.012;2023-02-11T05:02:40;32.37;;;5.57;;
19599;SDS011;9947;57.722;12.012;2023-02-11T05:05:13;30.00;;;5.73;;
19599;SDS011;9947;57.722;12.012;2023-02-11T05:07:41;37.03;;;6.03;;
19599;SDS011;9947;57.722;12.012;2023-02-11T05:10:15;44.10;;;6.13;;
19599;SDS011;9947;57.722;12.012;2023-02-11T05:12:42;45.77;;;6.63;;
19599;SDS011;9947;57.722;12.012;2023-02-11T05:15:16;37.03;;;5.73;;
19599;SDS011;9947;57.722;12.012;2023-02-11T05:17:43;35.30;;;7.07;;
19599;SDS011;9947;57.722;12.012;2023-02-11T05:20:24;43.07;;;6.23;;
19599;SDS011;9947;57.722;12.012;2023-02-11T05:22:59;37.03;;;6.13;;
19599;SDS011;9947;57.722;12.012;2023-02-11T05:25:25;38.47;;;6.13;;
19599;SDS011;9947;57.722;12.012;2023-02-11T05:27:59;50.20;;;6.87;;
19599;SDS011;9947;57.722;12.012;2023-02-11T05:30:33;33.73;;;7.73;;
19599;SDS011;9947;57.722;12.012;2023-02-11T05:33:07;46.17;;;7.17;;
19599;SDS011;9947;57.722;12.012;2023-02-11T05:35:40;41.57;;;6.20;;
19599;SDS011;9947;57.722;12.012;2023-02-11T05:38:14;46.00;;;5.93;;
19599;SDS011;9947;57.722;12.012;2023-02-11T05:40:41;29.10;;;5.77;;
19599;SDS011;9947;57.722;12.012;2023-02-11T05:43:15;40.87;;;6.20;;
19599;SDS011;9947;57.722;12.012;2023-02-11T05:45:42;42.63;;;7.13;;
19599;SDS011;9947;57.722;12.012;2023-02-11T05:48:16;33.43;;;6.03;;
19599;SDS011;9947;57.722;12.012;2023-02-11T05:50:43;38.27;;;6.00;;
19599;SDS011;9947;57.722;12.012;2023-02-11T05:53:19;31.03;;;5.73;;
19599;SDS011;9947;57.722;12.012;2023-02-11T05:55:46;35.37;;;6.83;;
19599;SDS011;9947;57.722;12.012;2023-02-11T05:58:19;37.70;;;5.03;;
19599;SDS011;9947;57.722;12.012;2023-02-11T06:00:46;31.77;;;5.17;;
19599;SDS011;9947;57.722;12.012;2023-02-11T06:03:26;31.73;;;5.73;;
19599;SDS011;9947;57.722;12.012;2023-02-11T06:05:53;35.23;;;6.27;;
19599;SDS011;9947;57.722;12.012;2023-02-11T06:08:27;29.63;;;5.20;;
19599;SDS011;9947;57.722;12.012;2023-02-11T06:10:54;36.13;;;5.27;;
19599;SDS011;9947;57.722;12.012;2023-02-11T06:13:28;29.50;;;5.30;;
19599;SDS011;9947;57.722;12.012;2023-02-11T06:15:55;28.30;;;4.80;;
19599;SDS011;9947;57.722;12.012;2023-02-11T06:18:29;29.63;;;4.60;;
19599;SDS011;9947;57.722;12.012;2023-02-11T06:20:57;28.77;;;5.80;;
19599;SDS011;9947;57.722;12.012;2023-02-11T06:23:32;29.83;;;5.93;;
19599;SDS011;9947;57.722;12.012;2023-02-11T06:26:07;24.83;;;4.97;;
19599;SDS011;9947;57.722;12.012;2023-02-11T06:28:47;40.77;;;5.83;;
19599;SDS011;9947;57.722;12.012;2023-02-11T06:31:14;34.47;;;4.73;;
19599;SDS011;9947;57.722;12.012;2023-02-11T06:33:48;31.80;;;5.13;;
19599;SDS011;9947;57.722;12.012;2023-02-11T06:36:16;31.50;;;4.90;;
19599;SDS011;9947;57.722;12.012;2023-02-11T06:38:53;41.23;;;6.13;;
19599;SDS011;9947;57.722;12.012;2023-02-11T06:41:20;23.27;;;4.87;;
19599;SDS011;9947;57.722;12.012;2023-02-11T06:43:53;29.13;;;4.80;;
19599;SDS011;9947;57.722;12.012;2023-02-11T06:46:20;25.27;;;4.13;;
19599;SDS011;9947;57.722;12.012;2023-02-11T06:48:53;32.10;;;5.13;;
19599;SDS011;9947;57.722;12.012;2023-02-11T06:51:20;32.30;;;4.90;;
19599;SDS011;9947;57.722;12.012;2023-02-11T06:53:55;26.27;;;4.50;;
19599;SDS011;9947;57.722;12.012;2023-02-11T06:56:28;29.40;;;4.90;;
19599;SDS011;9947;57.722;12.012;2023-02-11T06:59:01;30.90;;;4.93;;
19599;SDS011;9947;57.722;12.012;2023-02-11T07:01:28;28.30;;;4.53;;
19599;SDS011;9947;57.722;12.012;2023-02-11T07:04:08;24.40;;;4.83;;
19599;SDS011;9947;57.722;12.012;2023-02-11T07:06:35;25.90;;;4.57;;
19599;SDS011;9947;57.722;12.012;2023-02-11T07:09:09;28.57;;;5.10;;
19599;SDS011;9947;57.722;12.012;2023-02-11T07:11:36;27.37;;;4.63;;
19599;SDS011;9947;57.722;12.012;2023-02-11T07:14:10;24.57;;;4.03;;
19599;SDS011;9947;57.722;12.012;2023-02-11T07:16:37;27.13;;;4.30;;
19599;SDS011;9947;57.722;12.012;2023-02-11T07:19:10;22.00;;;4.07;;
19599;SDS011;9947;57.722;12.012;2023-02-11T07:21:37;20.90;;;4.20;;
19599;SDS011;9947;57.722;12.012;2023-02-11T07:24:18;30.40;;;4.53;;
19599;SDS011;9947;57.722;12.012;2023-02-11T07:26:45;21.07;;;4.23;;
19599;SDS011;9947;57.722;12.012;2023-02-11T07:29:18;26.67;;;3.60;;
19599;SDS011;9947;57.722;12.012;2023-02-11T07:31:45;36.23;;;6.23;;
19599;SDS011;9947;57.722;12.012;2023-02-11T07:34:21;26.90;;;4.70;;
19599;SDS011;9947;57.722;12.012;2023-02-11T07:36:48;28.97;;;3.90;;
19599;SDS011;9947;57.722;12.012;2023-02-11T07:39:23;19.27;;;3.80;;
19599;SDS011;9947;57.722;12.012;2023-02-11T07:41:51;23.50;;;4.40;;
19599;SDS011;9947;57.722;12.012;2023-02-11T07:44:25;25.53;;;3.90;;
19599;SDS011;9947;57.722;12.012;2023-02-11T07:46:52;18.50;;;4.30;;
19599;SDS011;9947;57.722;12.012;2023-02-11T07:49:25;28.93;;;5.60;;
19599;SDS011;9947;57.722;12.012;2023-02-11T07:51:52;22.77;;;4.83;;
19599;SDS011;9947;57.722;12.012;2023-02-11T07:54:27;21.37;;;3.80;;
19599;SDS011;9947;57.722;12.012;2023-02-11T07:56:54;23.03;;;4.17;;
19599;SDS011;9947;57.722;12.012;2023-02-11T07:59:27;20.30;;;4.10;;
19599;SDS011;9947;57.722;12.012;2023-02-11T08:01:54;26.27;;;4.47;;
19599;SDS011;9947;57.722;12.012;2023-02-11T08:04:28;21.07;;;3.57;;
19599;SDS011;9947;57.722;12.012;2023-02-11T08:06:55;30.33;;;3.93;;
19599;SDS011;9947;57.722;12.012;2023-02-11T08:09:36;18.63;;;3.63;;
19599;SDS011;9947;57.722;12.012;2023-02-11T08:12:03;22.43;;;4.67;;
19599;SDS011;9947;57.722;12.012;2023-02-11T08:14:37;22.83;;;3.90;;
19599;SDS011;9947;57.722;12.012;2023-02-11T08:17:04;24.83;;;4.13;;
19599;SDS011;9947;57.722;12.012;2023-02-11T08:19:37;25.13;;;5.07;;
19599;SDS011;9947;57.722;12.012;2023-02-11T08:22:04;22.67;;;3.40;;
19599;SDS011;9947;57.722;12.012;2023-02-11T08:24:39;27.43;;;4.60;;
19599;SDS011;9947;57.722;12.012;2023-02-11T08:27:13;19.70;;;3.70;;
19599;SDS011;9947;57.722;12.012;2023-02-11T08:29:46;24.47;;;3.97;;
19599;SDS011;9947;57.722;12.012;2023-02-11T08:32:13;30.03;;;4.23;;
19599;SDS011;9947;57.722;12.012;2023-02-11T08:34:49;46.97;;;6.60;;
19599;SDS011;9947;57.722;12.012;2023-02-11T08:37:16;24.13;;;3.93;;
19599;SDS011;9947;57.722;12.012;2023-02-11T08:39:51;23.93;;;4.73;;
19599;SDS011;9947;57.722;12.012;2023-02-11T08:42:18;31.13;;;4.67;;
19599;SDS011;9947;57.722;12.012;2023-02-11T08:44:52;26.97;;;5.03;;
19599;SDS011;9947;57.722;12.012;2023-02-11T08:47:19;24.77;;;4.70;;
19599;SDS011;9947;57.722;12.012;2023-02-11T08:49:52;17.30;;;4.43;;
19599;SDS011;9947;57.722;12.012;2023-02-11T08:52:19;33.10;;;4.47;;
19599;SDS011;9947;57.722;12.012;2023-02-11T08:54:53;26.07;;;5.10;;
19599;SDS011;9947;57.722;12.012;2023-02-11T08:57:20;27.57;;;4.83;;
19599;SDS011;9947;57.722;12.012;2023-02-11T08:59:54;32.30;;;5.17;;
19599;SDS011;9947;57.722;12.012;2023-02-11T09:02:29;24.97;;;4.83;;
19599;SDS011;9947;57.722;12.012;2023-02-11T09:05:13;20.90;;;4.77;;
19599;SDS011;9947;57.722;12.012;2023-02-11T09:07:54;27.27;;;4.53;;
19599;SDS011;9947;57.722;12.012;2023-02-11T09:10:36;27.17;;;4.43;;
19599;SDS011;9947;57.722;12.012;2023-02-11T09:13:09;27.87;;;4.23;;
19599;SDS011;9947;57.722;12.012;2023-02-11T09:15:36;23.53;;;4.13;;
19599;SDS011;9947;57.722;12.012;2023-02-11T09:18:10;27.67;;;3.93;;
19599;SDS011;9947;57.722;12.012;2023-02-11T09:20:43;32.67;;;5.27;;
19599;SDS011;9947;57.722;12.012;2023-02-11T09:23:16;24.40;;;4.20;;
19599;SDS011;9947;57.722;12.012;2023-02-11T09:25:50;30.57;;;5.97;;
19599;SDS011;9947;57.722;12.012;2023-02-11T09:28:24;22.53;;;4.40;;
19599;SDS011;9947;57.722;12.012;2023-02-11T09:30:51;26.57;;;4.57;;
19599;SDS011;9947;57.722;12.012;2023-02-11T09:33:24;30.97;;;4.57;;
19599;SDS011;9947;57.722;12.012;2023-02-11T09:35:51;27.70;;;4.43;;
19599;SDS011;9947;57.722;12.012;2023-02-11T09:38:24;27.70;;;4.97;;
19599;SDS011;9947;57.722;12.012;2023-02-11T09:40:52;28.27;;;4.23;;
19599;SDS011;9947;57.722;12.012;2023-02-11T09:43:32;26.70;;;4.27;;
19599;SDS011;9947;57.722;12.012;2023-02-11T09:46:12;27.03;;;4.00;;
19599;SDS011;9947;57.722;12.012;2023-02-11T09:48:48;20.93;;;4.10;;
19599;SDS011;9947;57.722;12.012;2023-02-11T09:51:18;24.27;;;4.23;;
19599;SDS011;9947;57.722;12.012;2023-02-11T09:53:59;21.73;;;3.80;;
19599;SDS011;9947;57.722;12.012;2023-02-11T09:56:32;15.27;;;3.70;;
19599;SDS011;9947;57.722;12.012;2023-02-11T09:59:05;24.53;;;4.27;;
19599;SDS011;9947;57.722;12.012;2023-02-11T10:01:37;21.90;;;3.93;;
19599;SDS011;9947;57.722;12.012;2023-02-11T10:04:19;23.63;;;4.30;;
19599;SDS011;9947;57.722;12.012;2023-02-11T10:07:00;31.87;;;4.80;;
19599;SDS011;9947;57.722;12.012;2023-02-11T10:09:44;20.00;;;3.33;;
19599;SDS011;9947;57.722;12.012;2023-02-11T10:12:40;15.33;;;3.97;;
19599;SDS011;9947;57.722;12.012;2023-02-11T10:15:30;30.27;;;4.63;;
19599;SDS011;9947;57.722;12.012;2023-02-11T10:18:28;28.07;;;4.10;;
19599;SDS011;9947;57.722;12.012;2023-02-11T10:21:18;26.90;;;4.80;;
19599;SDS011;9947;57.722;12.012;2023-02-11T10:24:00;25.90;;;4.60;;
19599;SDS011;9947;57.722;12.012;2023-02-11T10:26:31;20.60;;;4.40;;
19599;SDS011;9947;57.722;12.012;2023-02-11T10:29:13;19.33;;;4.10;;
19599;SDS011;9947;57.722;12.012;2023-02-11T10:31:51;28.43;;;4.13;;
19599;SDS011;9947;57.722;12.012;2023-02-11T10:34:25;24.27;;;4.43;;
19599;SDS011;9947;57.722;12.012;2023-02-11T10:36:52;30.87;;;4.40;;
19599;SDS011;9947;57.722;12.012;2023-02-11T10:39:26;19.20;;;4.57;;
19599;SDS011;9947;57.722;12.012;2023-02-11T10:42:04;20.97;;;4.40;;
19599;SDS011;9947;57.722;12.012;2023-02-11T10:44:42;26.57;;;4.00;;
19599;SDS011;9947;57.722;12.012;2023-02-11T10:47:20;21.13;;;4.53;;
19599;SDS011;9947;57.722;12.012;2023-02-11T10:49:57;23.87;;;4.63;;
19599;SDS011;9947;57.722;12.012;2023-02-11T10:52:27;20.70;;;4.30;;
19599;SDS011;9947;57.722;12.012;2023-02-11T10:55:04;25.57;;;4.80;;
19599;SDS011;9947;57.722;12.012;2023-02-11T10:57:40;23.63;;;4.23;;
19599;SDS011;9947;57.722;12.012;2023-02-11T11:00:32;19.83;;;3.87;;
19599;SDS011;9947;57.722;12.012;2023-02-11T11:03:02;18.67;;;4.23;;
19599;SDS011;9947;57.722;12.012;2023-02-11T11:05:45;18.87;;;3.83;;
19599;SDS011;9947;57.722;12.012;2023-02-11T11:08:20;21.07;;;4.50;;
19599;SDS011;9947;57.722;12.012;2023-02-11T11:11:00;33.10;;;7.70;;
19599;SDS011;9947;57.722;12.012;2023-02-11T11:13:36;24.37;;;4.90;;
19599;SDS011;9947;57.722;12.012;2023-02-11T11:19:19;28.23;;;5.70;;
19599;SDS011;9947;57.722;12.012;2023-02-11T11:21:48;25.33;;;5.20;;
19599;SDS011;9947;57.722;12.012;2023-02-11T11:24:25;29.83;;;5.27;;
19599;SDS011;9947;57.722;12.012;2023-02-11T11:26:55;22.93;;;4.50;;
19599;SDS011;9947;57.722;12.012;2023-02-11T11:29:33;29.40;;;4.67;;
19599;SDS011;9947;57.722;12.012;2023-02-11T11:32:04;25.73;;;4.70;;
19599;SDS011;9947;57.722;12.012;2023-02-11T11:34:47;20.07;;;4.43;;
19599;SDS011;9947;57.722;12.012;2023-02-11T11:37:25;32.23;;;5.67;;
19599;SDS011;9947;57.722;12.012;2023-02-11T11:40:01;22.87;;;4.87;;
19599;SDS011;9947;57.722;12.012;2023-02-11T11:42:34;27.03;;;4.90;;
19599;SDS011;9947;57.722;12.012;2023-02-11T11:45:19;18.03;;;4.67;;
19599;SDS011;9947;57.722;12.012;2023-02-11T11:47:59;23.83;;;4.67;;
19599;SDS011;9947;57.722;12.012;2023-02-11T11:50:39;23.50;;;4.77;;
19599;SDS011;9947;57.722;12.012;2023-02-11T11:53:17;25.70;;;4.97;;
19599;SDS011;9947;57.722;12.012;2023-02-11T11:55:52;28.00;;;5.17;;
19599;SDS011;9947;57.722;12.012;2023-02-11T11:58:32;32.43;;;5.10;;
19599;SDS011;9947;57.722;12.012;2023-02-11T12:01:03;31.47;;;4.90;;
19599;SDS011;9947;57.722;12.012;2023-02-11T12:06:58;27.30;;;4.80;;
19599;SDS011;9947;57.722;12.012;2023-02-11T12:09:41;36.37;;;6.33;;
19599;SDS011;9947;57.722;12.012;2023-02-11T12:12:23;29.80;;;5.47;;
19599;SDS011;9947;57.722;12.012;2023-02-11T12:15:15;24.90;;;4.30;;
19599;SDS011;9947;57.722;12.012;2023-02-11T12:18:15;29.03;;;4.70;;
19599;SDS011;9947;57.722;12.012;2023-02-11T12:20:56;31.77;;;5.30;;
19599;SDS011;9947;57.722;12.012;2023-02-11T12:23:45;22.20;;;5.47;;
19599;SDS011;9947;57.722;12.012;2023-02-11T12:26:27;25.77;;;4.47;;
19599;SDS011;9947;57.722;12.012;2023-02-11T12:29:07;28.13;;;5.13;;
19599;SDS011;9947;57.722;12.012;2023-02-11T12:31:48;26.77;;;5.80;;
19599;SDS011;9947;57.722;12.012;2023-02-11T12:34:39;24.07;;;4.50;;
19599;SDS011;9947;57.722;12.012;2023-02-11T12:37:26;22.80;;;4.77;;
19599;SDS011;9947;57.722;12.012;2023-02-11T12:40:10;28.00;;;4.83;;
19599;SDS011;9947;57.722;12.012;2023-02-11T12:42:50;32.03;;;4.47;;
19599;SDS011;9947;57.722;12.012;2023-02-11T12:45:49;26.97;;;4.90;;
19599;SDS011;9947;57.722;12.012;2023-02-11T12:51:24;28.00;;;5.20;;
19599;SDS011;9947;57.722;12.012;2023-02-11T12:54:18;20.00;;;4.93;;
19599;SDS011;9947;57.722;12.012;2023-02-11T12:56:50;25.40;;;4.47;;
19599;SDS011;9947;57.722;12.012;2023-02-11T12:59:30;30.37;;;4.97;;
19599;SDS011;9947;57.722;12.012;2023-02-11T13:02:25;28.93;;;4.83;;
19599;SDS011;9947;57.722;12.012;2023-02-11T13:05:08;33.63;;;5.27;;
19599;SDS011;9947;57.722;12.012;2023-02-11T13:07:52;25.80;;;4.97;;
19599;SDS011;9947;57.722;12.012;2023-02-11T13:10:25;33.43;;;4.77;;
19599;SDS011;9947;57.722;12.012;2023-02-11T13:13:03;29.90;;;4.70;;
19599;SDS011;9947;57.722;12.012;2023-02-11T13:15:42;16.50;;;4.17;;
19599;SDS011;9947;57.722;12.012;2023-02-11T13:18:26;24.13;;;5.30;;
19599;SDS011;9947;57.722;12.012;2023-02-11T13:21:16;27.63;;;4.90;;
19599;SDS011;9947;57.722;12.012;2023-02-11T13:24:00;24.80;;;4.50;;
19599;SDS011;9947;57.722;12.012;2023-02-11T13:26:38;23.30;;;4.43;;
19599;SDS011;9947;57.722;12.012;2023-02-11T13:29:21;27.27;;;4.77;;
19599;SDS011;9947;57.722;12.012;2023-02-11T13:31:55;31.40;;;4.67;;
19599;SDS011;9947;57.722;12.012;2023-02-11T13:34:55;29.77;;;5.80;;
19599;SDS011;9947;57.722;12.012;2023-02-11T13:37:24;41.10;;;6.00;;
19599;SDS011;9947;57.722;12.012;2023-02-11T13:40:00;27.57;;;5.53;;
19599;SDS011;9947;57.722;12.012;2023-02-11T13:42:31;33.03;;;5.50;;
19599;SDS011;9947;57.722;12.012;2023-02-11T13:45:23;31.37;;;5.33;;
19599;SDS011;9947;57.722;12.012;2023-02-11T13:47:55;25.93;;;5.23;;
19599;SDS011;9947;57.722;12.012;2023-02-11T13:50:37;31.03;;;5.67;;
19599;SDS011;9947;57.722;12.012;2023-02-11T13:53:11;29.33;;;5.83;;
19599;SDS011;9947;57.722;12.012;2023-02-11T13:55:53;37.83;;;5.47;;
19599;SDS011;9947;57.722;12.012;2023-02-11T13:58:48;29.27;;;5.43;;
19599;SDS011;9947;57.722;12.012;2023-02-11T14:04:35;26.47;;;5.40;;
19599;SDS011;9947;57.722;12.012;2023-02-11T14:07:23;31.50;;;5.67;;
19599;SDS011;9947;57.722;12.012;2023-02-11T14:13:24;23.47;;;4.90;;
19599;SDS011;9947;57.722;12.012;2023-02-11T14:16:03;31.40;;;5.60;;
19599;SDS011;9947;57.722;12.012;2023-02-11T14:18:58;25.73;;;5.60;;
19599;SDS011;9947;57.722;12.012;2023-02-11T14:21:31;35.50;;;6.10;;
19599;SDS011;9947;57.722;12.012;2023-02-11T14:27:13;32.63;;;5.77;;
19599;SDS011;9947;57.722;12.012;2023-02-11T14:29:58;31.07;;;5.80;;
19599;SDS011;9947;57.722;12.012;2023-02-11T14:32:40;33.23;;;5.83;;
19599;SDS011;9947;57.722;12.012;2023-02-11T14:35:23;27.47;;;5.90;;
19599;SDS011;9947;57.722;12.012;2023-02-11T14:37:58;30.73;;;5.60;;
19599;SDS011;9947;57.722;12.012;2023-02-11T14:40:40;31.33;;;5.93;;
19599;SDS011;9947;57.722;12.012;2023-02-11T14:43:17;26.23;;;6.30;;
19599;SDS011;9947;57.722;12.012;2023-02-11T14:45:55;28.73;;;5.60;;
19599;SDS011;9947;57.722;12.012;2023-02-11T14:48:39;33.13;;;6.17;;
19599;SDS011;9947;57.722;12.012;2023-02-11T14:51:12;39.93;;;6.73;;
19599;SDS011;9947;57.722;12.012;2023-02-11T14:53:52;22.10;;;5.47;;
19599;SDS011;9947;57.722;12.012;2023-02-11T14:56:25;26.27;;;5.20;;
19599;SDS011;9947;57.722;12.012;2023-02-11T14:59:00;37.87;;;5.93;;
19599;SDS011;9947;57.722;12.012;2023-02-11T15:01:29;31.80;;;5.67;;
19599;SDS011;9947;57.722;12.012;2023-02-11T15:04:22;30.53;;;6.03;;
19599;SDS011;9947;57.722;12.012;2023-02-11T15:06:57;30.40;;;6.93;;
19599;SDS011;9947;57.722;12.012;2023-02-11T15:09:38;35.80;;;6.83;;
19599;SDS011;9947;57.722;12.012;2023-02-11T15:12:09;30.30;;;6.27;;
19599;SDS011;9947;57.722;12.012;2023-02-11T15:14:50;31.23;;;6.67;;
19599;SDS011;9947;57.722;12.012;2023-02-11T15:17:20;31.13;;;6.77;;
19599;SDS011;9947;57.722;12.012;2023-02-11T15:19:58;28.93;;;5.63;;
19599;SDS011;9947;57.722;12.012;2023-02-11T15:22:37;31.90;;;6.43;;
19599;SDS011;9947;57.722;12.012;2023-02-11T15:25:11;26.70;;;6.87;;
19599;SDS011;9947;57.722;12.012;2023-02-11T15:27:41;40.57;;;6.57;;
19599;SDS011;9947;57.722;12.012;2023-02-11T15:30:27;25.10;;;5.73;;
19599;SDS011;9947;57.722;12.012;2023-02-11T15:33:03;27.10;;;5.13;;
19599;SDS011;9947;57.722;12.012;2023-02-11T15:35:38;29.33;;;6.03;;
19599;SDS011;9947;57.722;12.012;2023-02-11T15:38:11;28.63;;;6.17;;
19599;SDS011;9947;57.722;12.012;2023-02-11T15:40:39;24.63;;;6.17;;
19599;SDS011;9947;57.722;12.012;2023-02-11T15:43:22;39.20;;;6.90;;
19599;SDS011;9947;57.722;12.012;2023-02-11T15:45:53;40.27;;;6.93;;